sensor_id;sensor_type;location;lat;lon;timestamp;P1;durP1;ratioP1;P2;durP2;ratioP2
51459;SDS011;37534;39.772;2.718;2023-03-19T00:02:15;15.13;;;10.30;;
51459;SDS011;37534;39.772;2.718;2023-03-19T00:04:41;15.23;;;11.98;;
51459;SDS011;37534;39.772;2.718;2023-03-19T00:07:06;17.58;;;13.00;;
51459;SDS011;37534;39.772;2.718;2023-03-19T00:09:32;21.83;;;13.73;;
51459;SDS011;37534;39.772;2.718;2023-03-19T00:11:57;23.02;;;11.82;;
51459;SDS011;37534;39.772;2.718;2023-03-19T00:14:23;17.00;;;9.73;;
51459;SDS011;37534;39.772;2.718;2023-03-19T00:16:49;12.55;;;8.43;;
51459;SDS011;37534;39.772;2.718;2023-03-19T00:19:15;11.07;;;8.10;;
51459;SDS011;37534;39.772;2.718;2023-03-19T00:21:41;15.82;;;7.63;;
51459;SDS011;37534;39.772;2.718;2023-03-19T00:24:07;14.52;;;7.72;;
51459;SDS011;37534;39.772;2.718;2023-03-19T00:26:34;13.23;;;8.30;;
51459;SDS011;37534;39.772;2.718;2023-03-19T00:29:00;11.98;;;7.35;;
51459;SDS011;37534;39.772;2.718;2023-03-19T00:31:26;15.70;;;9.25;;
51459;SDS011;37534;39.772;2.718;2023-03-19T00:33:53;11.00;;;8.35;;
51459;SDS011;37534;39.772;2.718;2023-03-19T00:36:21;24.38;;;13.15;;
51459;SDS011;37534;39.772;2.718;2023-03-19T00:38:47;15.32;;;12.02;;
51459;SDS011;37534;39.772;2.718;2023-03-19T00:41:13;18.02;;;13.65;;
51459;SDS011;37534;39.772;2.718;2023-03-19T00:43:41;25.42;;;13.65;;
51459;SDS011;37534;39.772;2.718;2023-03-19T00:46:06;17.50;;;13.15;;
51459;SDS011;37534;39.772;2.718;2023-03-19T00:48:32;15.02;;;11.15;;
51459;SDS011;37534;39.772;2.718;2023-03-19T00:51:05;13.30;;;11.25;;
51459;SDS011;37534;39.772;2.718;2023-03-19T00:53:32;21.42;;;13.27;;
51459;SDS011;37534;39.772;2.718;2023-03-19T00:56:04;21.60;;;11.80;;
51459;SDS011;37534;39.772;2.718;2023-03-19T00:58:31;16.95;;;12.02;;
51459;SDS011;37534;39.772;2.718;2023-03-19T01:00:57;18.95;;;12.18;;
51459;SDS011;37534;39.772;2.718;2023-03-19T01:03:23;13.85;;;11.73;;
51459;SDS011;37534;39.772;2.718;2023-03-19T01:05:49;16.98;;;12.40;;
51459;SDS011;37534;39.772;2.718;2023-03-19T01:08:15;19.80;;;13.05;;
51459;SDS011;37534;39.772;2.718;2023-03-19T01:10:41;11.43;;;10.23;;
51459;SDS011;37534;39.772;2.718;2023-03-19T01:13:08;13.88;;;9.25;;
51459;SDS011;37534;39.772;2.718;2023-03-19T01:15:34;15.00;;;10.75;;
51459;SDS011;37534;39.772;2.718;2023-03-19T01:18:04;19.95;;;9.50;;
51459;SDS011;37534;39.772;2.718;2023-03-19T01:20:30;9.43;;;8.50;;
51459;SDS011;37534;39.772;2.718;2023-03-19T01:22:56;9.65;;;8.18;;
51459;SDS011;37534;39.772;2.718;2023-03-19T01:25:22;14.15;;;9.18;;
51459;SDS011;37534;39.772;2.718;2023-03-19T01:27:47;13.27;;;9.18;;
51459;SDS011;37534;39.772;2.718;2023-03-19T01:30:15;14.23;;;10.48;;
51459;SDS011;37534;39.772;2.718;2023-03-19T01:32:41;19.58;;;11.10;;
51459;SDS011;37534;39.772;2.718;2023-03-19T01:35:07;12.55;;;10.07;;
51459;SDS011;37534;39.772;2.718;2023-03-19T01:37:33;21.20;;;10.40;;
51459;SDS011;37534;39.772;2.718;2023-03-19T01:40:00;14.25;;;9.50;;
51459;SDS011;37534;39.772;2.718;2023-03-19T01:42:25;10.02;;;7.78;;
51459;SDS011;37534;39.772;2.718;2023-03-19T01:44:51;12.93;;;8.85;;
51459;SDS011;37534;39.772;2.718;2023-03-19T01:47:18;12.63;;;7.18;;
51459;SDS011;37534;39.772;2.718;2023-03-19T01:49:53;9.27;;;8.38;;
51459;SDS011;37534;39.772;2.718;2023-03-19T01:52:20;12.00;;;8.45;;
51459;SDS011;37534;39.772;2.718;2023-03-19T01:54:48;10.25;;;8.63;;
51459;SDS011;37534;39.772;2.718;2023-03-19T01:57:15;12.77;;;8.80;;
51459;SDS011;37534;39.772;2.718;2023-03-19T01:59:43;10.52;;;8.25;;
51459;SDS011;37534;39.772;2.718;2023-03-19T02:02:16;11.50;;;7.85;;
51459;SDS011;37534;39.772;2.718;2023-03-19T02:04:48;10.82;;;7.53;;
51459;SDS011;37534;39.772;2.718;2023-03-19T02:07:16;10.93;;;8.68;;
51459;SDS011;37534;39.772;2.718;2023-03-19T02:09:42;13.07;;;10.98;;
51459;SDS011;37534;39.772;2.718;2023-03-19T02:12:08;10.20;;;8.90;;
51459;SDS011;37534;39.772;2.718;2023-03-19T02:14:34;15.05;;;8.90;;
51459;SDS011;37534;39.772;2.718;2023-03-19T02:17:00;12.30;;;9.50;;
51459;SDS011;37534;39.772;2.718;2023-03-19T02:19:27;12.20;;;9.38;;
51459;SDS011;37534;39.772;2.718;2023-03-19T02:21:59;9.25;;;8.38;;
51459;SDS011;37534;39.772;2.718;2023-03-19T02:24:31;16.27;;;10.95;;
51459;SDS011;37534;39.772;2.718;2023-03-19T02:27:03;12.38;;;9.88;;
51459;SDS011;37534;39.772;2.718;2023-03-19T02:29:33;14.10;;;9.40;;
51459;SDS011;37534;39.772;2.718;2023-03-19T02:31:59;10.13;;;9.07;;
51459;SDS011;37534;39.772;2.718;2023-03-19T02:36:56;11.77;;;9.63;;
51459;SDS011;37534;39.772;2.718;2023-03-19T02:39:37;13.77;;;8.57;;
51459;SDS011;37534;39.772;2.718;2023-03-19T02:42:08;10.68;;;7.43;;
51459;SDS011;37534;39.772;2.718;2023-03-19T02:44:35;7.78;;;6.93;;
51459;SDS011;37534;39.772;2.718;2023-03-19T02:47:02;8.90;;;6.65;;
51459;SDS011;37534;39.772;2.718;2023-03-19T02:49:28;17.20;;;8.60;;
51459;SDS011;37534;39.772;2.718;2023-03-19T02:51:53;18.00;;;8.50;;
51459;SDS011;37534;39.772;2.718;2023-03-19T02:54:19;11.38;;;7.47;;
51459;SDS011;37534;39.772;2.718;2023-03-19T02:56:45;10.77;;;7.25;;
51459;SDS011;37534;39.772;2.718;2023-03-19T02:59:11;10.23;;;7.88;;
51459;SDS011;37534;39.772;2.718;2023-03-19T03:01:37;19.35;;;9.48;;
51459;SDS011;37534;39.772;2.718;2023-03-19T03:04:03;13.00;;;8.80;;
51459;SDS011;37534;39.772;2.718;2023-03-19T03:06:29;10.05;;;8.23;;
51459;SDS011;37534;39.772;2.718;2023-03-19T03:08:54;10.07;;;8.95;;
51459;SDS011;37534;39.772;2.718;2023-03-19T03:11:20;9.55;;;7.70;;
51459;SDS011;37534;39.772;2.718;2023-03-19T03:13:46;12.48;;;9.25;;
51459;SDS011;37534;39.772;2.718;2023-03-19T03:16:12;9.90;;;8.00;;
51459;SDS011;37534;39.772;2.718;2023-03-19T03:18:38;8.77;;;7.35;;
51459;SDS011;37534;39.772;2.718;2023-03-19T03:21:03;10.98;;;7.53;;
51459;SDS011;37534;39.772;2.718;2023-03-19T03:23:29;9.27;;;6.85;;
51459;SDS011;37534;39.772;2.718;2023-03-19T03:25:55;13.82;;;7.85;;
51459;SDS011;37534;39.772;2.718;2023-03-19T03:28:20;9.07;;;6.43;;
51459;SDS011;37534;39.772;2.718;2023-03-19T03:30:46;8.02;;;5.68;;
51459;SDS011;37534;39.772;2.718;2023-03-19T03:33:11;8.57;;;7.60;;
51459;SDS011;37534;39.772;2.718;2023-03-19T03:35:37;14.45;;;7.55;;
51459;SDS011;37534;39.772;2.718;2023-03-19T03:38:03;14.93;;;8.40;;
51459;SDS011;37534;39.772;2.718;2023-03-19T03:40:28;11.05;;;6.88;;
51459;SDS011;37534;39.772;2.718;2023-03-19T03:42:55;7.47;;;6.78;;
51459;SDS011;37534;39.772;2.718;2023-03-19T03:45:21;9.65;;;7.43;;
51459;SDS011;37534;39.772;2.718;2023-03-19T03:47:47;9.82;;;7.63;;
51459;SDS011;37534;39.772;2.718;2023-03-19T03:50:12;27.33;;;9.35;;
51459;SDS011;37534;39.772;2.718;2023-03-19T03:52:38;9.15;;;8.23;;
51459;SDS011;37534;39.772;2.718;2023-03-19T03:55:05;10.63;;;8.52;;
51459;SDS011;37534;39.772;2.718;2023-03-19T03:57:31;12.25;;;8.38;;
51459;SDS011;37534;39.772;2.718;2023-03-19T03:59:57;10.95;;;8.02;;
51459;SDS011;37534;39.772;2.718;2023-03-19T04:02:23;13.73;;;8.85;;
51459;SDS011;37534;39.772;2.718;2023-03-19T04:04:49;14.30;;;9.43;;
51459;SDS011;37534;39.772;2.718;2023-03-19T04:07:15;24.60;;;9.10;;
51459;SDS011;37534;39.772;2.718;2023-03-19T04:09:41;14.77;;;9.45;;
51459;SDS011;37534;39.772;2.718;2023-03-19T04:12:07;8.13;;;7.28;;
51459;SDS011;37534;39.772;2.718;2023-03-19T04:14:33;14.20;;;8.50;;
51459;SDS011;37534;39.772;2.718;2023-03-19T04:16:59;15.85;;;7.57;;
51459;SDS011;37534;39.772;2.718;2023-03-19T04:19:24;10.23;;;8.25;;
51459;SDS011;37534;39.772;2.718;2023-03-19T04:21:50;9.27;;;7.38;;
51459;SDS011;37534;39.772;2.718;2023-03-19T04:24:15;7.70;;;6.97;;
51459;SDS011;37534;39.772;2.718;2023-03-19T04:26:41;10.85;;;8.15;;
51459;SDS011;37534;39.772;2.718;2023-03-19T04:29:06;11.43;;;6.65;;
51459;SDS011;37534;39.772;2.718;2023-03-19T04:31:32;12.65;;;7.93;;
51459;SDS011;37534;39.772;2.718;2023-03-19T04:33:58;11.82;;;8.25;;
51459;SDS011;37534;39.772;2.718;2023-03-19T04:36:24;10.27;;;7.30;;
51459;SDS011;37534;39.772;2.718;2023-03-19T04:38:50;9.43;;;7.10;;
51459;SDS011;37534;39.772;2.718;2023-03-19T04:41:16;8.85;;;6.10;;
51459;SDS011;37534;39.772;2.718;2023-03-19T04:43:42;6.38;;;5.78;;
51459;SDS011;37534;39.772;2.718;2023-03-19T04:46:07;11.57;;;6.05;;
51459;SDS011;37534;39.772;2.718;2023-03-19T04:48:33;9.10;;;6.25;;
51459;SDS011;37534;39.772;2.718;2023-03-19T04:51:03;6.78;;;5.10;;
51459;SDS011;37534;39.772;2.718;2023-03-19T04:53:32;8.27;;;5.65;;
51459;SDS011;37534;39.772;2.718;2023-03-19T04:55:58;7.60;;;4.72;;
51459;SDS011;37534;39.772;2.718;2023-03-19T04:58:23;11.68;;;5.57;;
51459;SDS011;37534;39.772;2.718;2023-03-19T05:00:49;14.60;;;5.25;;
51459;SDS011;37534;39.772;2.718;2023-03-19T05:03:15;15.23;;;5.22;;
51459;SDS011;37534;39.772;2.718;2023-03-19T05:05:41;6.00;;;4.22;;
51459;SDS011;37534;39.772;2.718;2023-03-19T05:08:07;12.38;;;5.10;;
51459;SDS011;37534;39.772;2.718;2023-03-19T05:10:34;6.20;;;4.93;;
51459;SDS011;37534;39.772;2.718;2023-03-19T05:13:00;4.75;;;3.83;;
51459;SDS011;37534;39.772;2.718;2023-03-19T05:15:26;4.95;;;3.58;;
51459;SDS011;37534;39.772;2.718;2023-03-19T05:17:52;7.32;;;5.25;;
51459;SDS011;37534;39.772;2.718;2023-03-19T05:20:17;12.00;;;5.47;;
51459;SDS011;37534;39.772;2.718;2023-03-19T05:22:43;11.07;;;5.70;;
51459;SDS011;37534;39.772;2.718;2023-03-19T05:25:10;8.75;;;5.50;;
51459;SDS011;37534;39.772;2.718;2023-03-19T05:27:36;5.85;;;5.18;;
51459;SDS011;37534;39.772;2.718;2023-03-19T05:30:02;7.70;;;6.25;;
51459;SDS011;37534;39.772;2.718;2023-03-19T05:32:28;8.15;;;6.13;;
51459;SDS011;37534;39.772;2.718;2023-03-19T05:34:54;9.63;;;6.60;;
51459;SDS011;37534;39.772;2.718;2023-03-19T05:37:19;12.45;;;7.32;;
51459;SDS011;37534;39.772;2.718;2023-03-19T05:39:45;11.77;;;6.25;;
51459;SDS011;37534;39.772;2.718;2023-03-19T05:42:11;6.38;;;5.70;;
51459;SDS011;37534;39.772;2.718;2023-03-19T05:44:37;11.18;;;5.80;;
51459;SDS011;37534;39.772;2.718;2023-03-19T05:47:02;20.13;;;6.63;;
51459;SDS011;37534;39.772;2.718;2023-03-19T05:49:28;8.65;;;5.50;;
51459;SDS011;37534;39.772;2.718;2023-03-19T05:51:53;8.63;;;5.10;;
51459;SDS011;37534;39.772;2.718;2023-03-19T05:54:19;5.10;;;4.70;;
51459;SDS011;37534;39.772;2.718;2023-03-19T05:56:45;6.32;;;5.68;;
51459;SDS011;37534;39.772;2.718;2023-03-19T05:59:10;6.63;;;6.00;;
51459;SDS011;37534;39.772;2.718;2023-03-19T06:01:36;16.20;;;5.55;;
51459;SDS011;37534;39.772;2.718;2023-03-19T06:04:05;8.65;;;6.10;;
51459;SDS011;37534;39.772;2.718;2023-03-19T06:06:31;8.15;;;6.00;;
51459;SDS011;37534;39.772;2.718;2023-03-19T06:08:56;8.25;;;5.50;;
51459;SDS011;37534;39.772;2.718;2023-03-19T06:11:22;8.48;;;6.00;;
51459;SDS011;37534;39.772;2.718;2023-03-19T06:13:48;6.22;;;5.60;;
51459;SDS011;37534;39.772;2.718;2023-03-19T06:16:13;18.50;;;5.28;;
51459;SDS011;37534;39.772;2.718;2023-03-19T06:18:39;10.55;;;5.88;;
51459;SDS011;37534;39.772;2.718;2023-03-19T06:21:05;6.82;;;5.90;;
51459;SDS011;37534;39.772;2.718;2023-03-19T06:23:30;7.88;;;5.82;;
51459;SDS011;37534;39.772;2.718;2023-03-19T06:25:56;11.43;;;4.97;;
51459;SDS011;37534;39.772;2.718;2023-03-19T06:28:21;15.60;;;6.40;;
51459;SDS011;37534;39.772;2.718;2023-03-19T06:30:47;6.43;;;5.00;;
51459;SDS011;37534;39.772;2.718;2023-03-19T06:33:13;7.25;;;6.60;;
51459;SDS011;37534;39.772;2.718;2023-03-19T06:35:38;8.45;;;6.63;;
51459;SDS011;37534;39.772;2.718;2023-03-19T06:38:04;12.18;;;6.43;;
51459;SDS011;37534;39.772;2.718;2023-03-19T06:40:31;9.70;;;6.80;;
51459;SDS011;37534;39.772;2.718;2023-03-19T06:42:57;11.70;;;9.30;;
51459;SDS011;37534;39.772;2.718;2023-03-19T06:45:22;9.38;;;7.70;;
51459;SDS011;37534;39.772;2.718;2023-03-19T06:47:48;7.47;;;6.50;;
51459;SDS011;37534;39.772;2.718;2023-03-19T06:50:14;9.88;;;7.55;;
51459;SDS011;37534;39.772;2.718;2023-03-19T06:52:42;10.35;;;6.97;;
51459;SDS011;37534;39.772;2.718;2023-03-19T06:55:09;10.80;;;6.43;;
51459;SDS011;37534;39.772;2.718;2023-03-19T06:57:36;9.55;;;7.30;;
51459;SDS011;37534;39.772;2.718;2023-03-19T07:00:02;8.27;;;6.30;;
51459;SDS011;37534;39.772;2.718;2023-03-19T07:02:29;9.02;;;6.97;;
51459;SDS011;37534;39.772;2.718;2023-03-19T07:04:55;10.70;;;6.78;;
51459;SDS011;37534;39.772;2.718;2023-03-19T07:07:20;12.18;;;6.35;;
51459;SDS011;37534;39.772;2.718;2023-03-19T07:09:46;10.38;;;7.15;;
51459;SDS011;37534;39.772;2.718;2023-03-19T07:12:12;14.15;;;7.68;;
51459;SDS011;37534;39.772;2.718;2023-03-19T07:14:37;17.27;;;7.53;;
51459;SDS011;37534;39.772;2.718;2023-03-19T07:17:03;9.18;;;7.82;;
51459;SDS011;37534;39.772;2.718;2023-03-19T07:19:29;7.35;;;5.55;;
51459;SDS011;37534;39.772;2.718;2023-03-19T07:21:54;13.07;;;6.03;;
51459;SDS011;37534;39.772;2.718;2023-03-19T07:24:20;12.38;;;6.40;;
51459;SDS011;37534;39.772;2.718;2023-03-19T07:26:46;15.38;;;5.72;;
51459;SDS011;37534;39.772;2.718;2023-03-19T07:29:11;22.73;;;7.95;;
51459;SDS011;37534;39.772;2.718;2023-03-19T07:31:38;9.23;;;7.22;;
51459;SDS011;37534;39.772;2.718;2023-03-19T07:34:03;11.32;;;10.00;;
51459;SDS011;37534;39.772;2.718;2023-03-19T07:36:29;8.18;;;7.38;;
51459;SDS011;37534;39.772;2.718;2023-03-19T07:38:55;7.28;;;5.53;;
51459;SDS011;37534;39.772;2.718;2023-03-19T07:41:21;6.05;;;5.28;;
51459;SDS011;37534;39.772;2.718;2023-03-19T07:43:47;5.20;;;4.70;;
51459;SDS011;37534;39.772;2.718;2023-03-19T07:46:13;8.15;;;5.15;;
51459;SDS011;37534;39.772;2.718;2023-03-19T07:48:38;10.43;;;4.22;;
51459;SDS011;37534;39.772;2.718;2023-03-19T07:51:04;4.70;;;4.10;;
51459;SDS011;37534;39.772;2.718;2023-03-19T07:53:35;10.47;;;4.30;;
51459;SDS011;37534;39.772;2.718;2023-03-19T07:56:11;6.78;;;4.35;;
51459;SDS011;37534;39.772;2.718;2023-03-19T07:58:37;5.28;;;3.90;;
51459;SDS011;37534;39.772;2.718;2023-03-19T08:01:03;9.48;;;4.20;;
51459;SDS011;37534;39.772;2.718;2023-03-19T08:03:28;7.25;;;3.35;;
51459;SDS011;37534;39.772;2.718;2023-03-19T08:05:54;5.55;;;3.67;;
51459;SDS011;37534;39.772;2.718;2023-03-19T08:08:20;9.18;;;4.30;;
51459;SDS011;37534;39.772;2.718;2023-03-19T08:10:45;5.85;;;3.75;;
51459;SDS011;37534;39.772;2.718;2023-03-19T08:13:12;5.22;;;2.88;;
51459;SDS011;37534;39.772;2.718;2023-03-19T08:15:38;4.20;;;3.22;;
51459;SDS011;37534;39.772;2.718;2023-03-19T08:18:04;7.15;;;2.63;;
51459;SDS011;37534;39.772;2.718;2023-03-19T08:20:30;15.52;;;3.70;;
51459;SDS011;37534;39.772;2.718;2023-03-19T08:22:56;7.05;;;3.90;;
51459;SDS011;37534;39.772;2.718;2023-03-19T08:25:22;3.03;;;2.38;;
51459;SDS011;37534;39.772;2.718;2023-03-19T08:27:48;3.85;;;2.80;;
51459;SDS011;37534;39.772;2.718;2023-03-19T08:30:14;4.15;;;3.00;;
51459;SDS011;37534;39.772;2.718;2023-03-19T08:32:41;3.60;;;2.70;;
51459;SDS011;37534;39.772;2.718;2023-03-19T08:35:09;5.22;;;2.67;;
51459;SDS011;37534;39.772;2.718;2023-03-19T08:37:35;5.57;;;3.15;;
51459;SDS011;37534;39.772;2.718;2023-03-19T08:40:02;7.70;;;2.75;;
51459;SDS011;37534;39.772;2.718;2023-03-19T08:42:28;8.88;;;3.35;;
51459;SDS011;37534;39.772;2.718;2023-03-19T08:44:55;9.05;;;2.47;;
51459;SDS011;37534;39.772;2.718;2023-03-19T08:47:21;4.97;;;2.67;;
51459;SDS011;37534;39.772;2.718;2023-03-19T08:49:48;6.30;;;2.60;;
51459;SDS011;37534;39.772;2.718;2023-03-19T08:52:15;5.82;;;3.00;;
51459;SDS011;37534;39.772;2.718;2023-03-19T08:54:41;4.07;;;2.47;;
51459;SDS011;37534;39.772;2.718;2023-03-19T08:57:07;4.20;;;2.30;;
51459;SDS011;37534;39.772;2.718;2023-03-19T08:59:32;9.93;;;2.38;;
51459;SDS011;37534;39.772;2.718;2023-03-19T09:01:58;11.10;;;2.85;;
51459;SDS011;37534;39.772;2.718;2023-03-19T09:04:24;11.52;;;2.38;;
51459;SDS011;37534;39.772;2.718;2023-03-19T09:06:49;5.20;;;2.30;;
51459;SDS011;37534;39.772;2.718;2023-03-19T09:09:18;4.10;;;2.80;;
51459;SDS011;37534;39.772;2.718;2023-03-19T09:11:45;9.55;;;3.15;;
51459;SDS011;37534;39.772;2.718;2023-03-19T09:14:12;9.50;;;3.28;;
51459;SDS011;37534;39.772;2.718;2023-03-19T09:16:40;5.18;;;2.50;;
51459;SDS011;37534;39.772;2.718;2023-03-19T09:19:06;12.48;;;3.42;;
51459;SDS011;37534;39.772;2.718;2023-03-19T09:21:32;7.88;;;2.63;;
51459;SDS011;37534;39.772;2.718;2023-03-19T09:23:58;6.05;;;2.08;;
51459;SDS011;37534;39.772;2.718;2023-03-19T09:26:24;7.72;;;3.13;;
51459;SDS011;37534;39.772;2.718;2023-03-19T09:28:49;3.35;;;2.40;;
51459;SDS011;37534;39.772;2.718;2023-03-19T09:31:15;11.00;;;3.13;;
51459;SDS011;37534;39.772;2.718;2023-03-19T09:33:41;6.88;;;3.35;;
51459;SDS011;37534;39.772;2.718;2023-03-19T09:36:06;10.55;;;3.83;;
51459;SDS011;37534;39.772;2.718;2023-03-19T09:38:32;20.15;;;3.33;;
51459;SDS011;37534;39.772;2.718;2023-03-19T09:41:17;6.10;;;2.72;;
51459;SDS011;37534;39.772;2.718;2023-03-19T09:43:56;9.25;;;3.05;;
51459;SDS011;37534;39.772;2.718;2023-03-19T09:46:27;15.18;;;3.63;;
51459;SDS011;37534;39.772;2.718;2023-03-19T09:48:59;7.30;;;3.38;;
51459;SDS011;37534;39.772;2.718;2023-03-19T09:51:44;4.97;;;2.90;;
51459;SDS011;37534;39.772;2.718;2023-03-19T09:54:38;5.35;;;3.17;;
51459;SDS011;37534;39.772;2.718;2023-03-19T09:57:12;3.90;;;2.72;;
51459;SDS011;37534;39.772;2.718;2023-03-19T09:59:38;8.27;;;3.45;;
51459;SDS011;37534;39.772;2.718;2023-03-19T10:05:17;9.00;;;3.30;;
51459;SDS011;37534;39.772;2.718;2023-03-19T10:13:07;10.43;;;4.97;;
51459;SDS011;37534;39.772;2.718;2023-03-19T10:15:54;13.43;;;5.13;;
51459;SDS011;37534;39.772;2.718;2023-03-19T10:18:25;12.23;;;3.60;;
51459;SDS011;37534;39.772;2.718;2023-03-19T10:21:05;12.40;;;4.22;;
51459;SDS011;37534;39.772;2.718;2023-03-19T10:26:15;10.20;;;3.65;;
51459;SDS011;37534;39.772;2.718;2023-03-19T10:28:45;7.38;;;2.78;;
51459;SDS011;37534;39.772;2.718;2023-03-19T10:31:27;22.00;;;5.30;;
51459;SDS011;37534;39.772;2.718;2023-03-19T10:37:03;9.52;;;3.47;;
51459;SDS011;37534;39.772;2.718;2023-03-19T10:39:33;5.03;;;3.17;;
51459;SDS011;37534;39.772;2.718;2023-03-19T10:45:17;9.90;;;3.53;;
51459;SDS011;37534;39.772;2.718;2023-03-19T10:47:44;8.63;;;3.92;;
51459;SDS011;37534;39.772;2.718;2023-03-19T10:50:15;10.77;;;4.85;;
51459;SDS011;37534;39.772;2.718;2023-03-19T10:52:42;8.25;;;3.13;;
51459;SDS011;37534;39.772;2.718;2023-03-19T10:55:13;12.80;;;4.20;;
51459;SDS011;37534;39.772;2.718;2023-03-19T10:57:48;8.90;;;3.67;;
51459;SDS011;37534;39.772;2.718;2023-03-19T11:00:21;12.70;;;3.47;;
51459;SDS011;37534;39.772;2.718;2023-03-19T11:02:54;10.60;;;4.35;;
51459;SDS011;37534;39.772;2.718;2023-03-19T11:07:49;9.77;;;6.03;;
51459;SDS011;37534;39.772;2.718;2023-03-19T11:10:20;11.57;;;4.75;;
51459;SDS011;37534;39.772;2.718;2023-03-19T11:12:55;5.13;;;3.38;;
51459;SDS011;37534;39.772;2.718;2023-03-19T11:15:25;8.35;;;3.67;;
51459;SDS011;37534;39.772;2.718;2023-03-19T11:18:21;10.32;;;3.53;;
51459;SDS011;37534;39.772;2.718;2023-03-19T11:20:57;9.45;;;2.85;;
51459;SDS011;37534;39.772;2.718;2023-03-19T11:23:43;7.57;;;3.33;;
51459;SDS011;37534;39.772;2.718;2023-03-19T11:26:09;7.18;;;3.20;;
51459;SDS011;37534;39.772;2.718;2023-03-19T11:28:43;9.50;;;3.33;;
51459;SDS011;37534;39.772;2.718;2023-03-19T11:31:14;8.77;;;3.92;;
51459;SDS011;37534;39.772;2.718;2023-03-19T11:50:57;10.90;;;3.53;;
51459;SDS011;37534;39.772;2.718;2023-03-19T11:56:01;5.28;;;2.42;;
51459;SDS011;37534;39.772;2.718;2023-03-19T12:12:25;10.45;;;2.90;;
51459;SDS011;37534;39.772;2.718;2023-03-19T12:15:07;12.45;;;3.03;;
51459;SDS011;37534;39.772;2.718;2023-03-19T12:18:03;5.45;;;2.90;;
51459;SDS011;37534;39.772;2.718;2023-03-19T12:23:49;7.95;;;3.10;;
51459;SDS011;37534;39.772;2.718;2023-03-19T12:39:36;6.88;;;2.95;;
51459;SDS011;37534;39.772;2.718;2023-03-19T12:42:06;16.42;;;2.80;;
51459;SDS011;37534;39.772;2.718;2023-03-19T12:44:45;3.88;;;2.00;;
51459;SDS011;37534;39.772;2.718;2023-03-19T12:47:16;3.95;;;2.58;;
51459;SDS011;37534;39.772;2.718;2023-03-19T12:50:04;8.45;;;2.53;;
51459;SDS011;37534;39.772;2.718;2023-03-19T12:52:37;2.47;;;1.63;;
51459;SDS011;37534;39.772;2.718;2023-03-19T12:55:15;8.93;;;2.25;;
51459;SDS011;37534;39.772;2.718;2023-03-19T12:57:50;4.82;;;2.35;;
51459;SDS011;37534;39.772;2.718;2023-03-19T13:02:59;8.05;;;2.55;;
51459;SDS011;37534;39.772;2.718;2023-03-19T13:08:28;1.95;;;1.48;;
51459;SDS011;37534;39.772;2.718;2023-03-19T13:10:51;4.47;;;1.80;;
51459;SDS011;37534;39.772;2.718;2023-03-19T13:16:02;5.43;;;1.52;;
51459;SDS011;37534;39.772;2.718;2023-03-19T13:21:22;8.38;;;1.77;;
51459;SDS011;37534;39.772;2.718;2023-03-19T13:26:45;7.78;;;2.13;;
51459;SDS011;37534;39.772;2.718;2023-03-19T13:29:22;11.68;;;2.35;;
51459;SDS011;37534;39.772;2.718;2023-03-19T13:31:51;7.57;;;2.40;;
51459;SDS011;37534;39.772;2.718;2023-03-19T13:34:23;5.10;;;1.95;;
51459;SDS011;37534;39.772;2.718;2023-03-19T13:37:12;2.13;;;1.80;;
51459;SDS011;37534;39.772;2.718;2023-03-19T13:39:39;3.67;;;1.90;;
51459;SDS011;37534;39.772;2.718;2023-03-19T13:58:10;5.30;;;2.13;;
51459;SDS011;37534;39.772;2.718;2023-03-19T14:01:05;3.75;;;1.58;;
51459;SDS011;37534;39.772;2.718;2023-03-19T14:03:40;9.52;;;2.45;;
51459;SDS011;37534;39.772;2.718;2023-03-19T14:09:26;8.73;;;1.73;;
51459;SDS011;37534;39.772;2.718;2023-03-19T14:17:25;5.70;;;2.05;;
51459;SDS011;37534;39.772;2.718;2023-03-19T14:19:55;5.88;;;2.33;;
51459;SDS011;37534;39.772;2.718;2023-03-19T14:26:38;8.40;;;2.72;;
51459;SDS011;37534;39.772;2.718;2023-03-19T14:39:49;4.47;;;1.65;;
51459;SDS011;37534;39.772;2.718;2023-03-19T14:42:25;4.88;;;2.17;;
51459;SDS011;37534;39.772;2.718;2023-03-19T14:52:59;3.20;;;1.83;;
51459;SDS011;37534;39.772;2.718;2023-03-19T14:55:35;3.22;;;1.60;;
51459;SDS011;37534;39.772;2.718;2023-03-19T14:58:02;5.70;;;1.63;;
51459;SDS011;37534;39.772;2.718;2023-03-19T15:00:35;3.47;;;1.63;;
51459;SDS011;37534;39.772;2.718;2023-03-19T15:03:06;3.00;;;1.55;;
51459;SDS011;37534;39.772;2.718;2023-03-19T15:05:43;11.88;;;1.80;;
51459;SDS011;37534;39.772;2.718;2023-03-19T15:08:14;4.68;;;2.20;;
51459;SDS011;37534;39.772;2.718;2023-03-19T15:10:53;3.47;;;1.60;;
51459;SDS011;37534;39.772;2.718;2023-03-19T15:13:32;3.80;;;1.73;;
51459;SDS011;37534;39.772;2.718;2023-03-19T15:18:28;6.82;;;2.85;;
51459;SDS011;37534;39.772;2.718;2023-03-19T15:20:55;3.15;;;1.73;;
51459;SDS011;37534;39.772;2.718;2023-03-19T15:23:25;4.10;;;2.15;;
51459;SDS011;37534;39.772;2.718;2023-03-19T15:25:53;5.70;;;2.42;;
51459;SDS011;37534;39.772;2.718;2023-03-19T15:28:22;7.32;;;2.90;;
51459;SDS011;37534;39.772;2.718;2023-03-19T15:33:35;4.15;;;3.13;;
51459;SDS011;37534;39.772;2.718;2023-03-19T15:36:04;9.70;;;2.15;;
51459;SDS011;37534;39.772;2.718;2023-03-19T15:38:56;5.32;;;2.35;;
51459;SDS011;37534;39.772;2.718;2023-03-19T15:41:29;4.22;;;1.98;;
51459;SDS011;37534;39.772;2.718;2023-03-19T15:43:57;6.53;;;2.65;;
51459;SDS011;37534;39.772;2.718;2023-03-19T15:46:26;2.58;;;1.15;;
51459;SDS011;37534;39.772;2.718;2023-03-19T15:49:00;14.95;;;2.05;;
51459;SDS011;37534;39.772;2.718;2023-03-19T15:51:35;5.95;;;2.00;;
51459;SDS011;37534;39.772;2.718;2023-03-19T15:54:01;8.43;;;1.92;;
51459;SDS011;37534;39.772;2.718;2023-03-19T15:56:28;3.33;;;1.70;;
51459;SDS011;37534;39.772;2.718;2023-03-19T15:58:56;3.50;;;1.90;;
51459;SDS011;37534;39.772;2.718;2023-03-19T16:01:24;7.35;;;2.20;;
51459;SDS011;37534;39.772;2.718;2023-03-19T16:03:58;3.60;;;1.58;;
51459;SDS011;37534;39.772;2.718;2023-03-19T16:08:53;2.42;;;1.55;;
51459;SDS011;37534;39.772;2.718;2023-03-19T16:16:22;5.00;;;1.45;;
51459;SDS011;37534;39.772;2.718;2023-03-19T16:18:49;3.15;;;1.60;;
51459;SDS011;37534;39.772;2.718;2023-03-19T16:21:27;17.75;;;1.70;;
51459;SDS011;37534;39.772;2.718;2023-03-19T16:23:54;1.98;;;1.38;;
51459;SDS011;37534;39.772;2.718;2023-03-19T16:26:42;4.65;;;2.10;;
51459;SDS011;37534;39.772;2.718;2023-03-19T16:31:41;4.47;;;1.60;;
51459;SDS011;37534;39.772;2.718;2023-03-19T16:34:21;5.22;;;1.70;;
51459;SDS011;37534;39.772;2.718;2023-03-19T16:37:21;5.57;;;2.08;;
51459;SDS011;37534;39.772;2.718;2023-03-19T16:39:55;4.68;;;2.17;;
51459;SDS011;37534;39.772;2.718;2023-03-19T16:44:56;7.70;;;1.85;;
51459;SDS011;37534;39.772;2.718;2023-03-19T16:47:27;4.93;;;2.08;;
51459;SDS011;37534;39.772;2.718;2023-03-19T16:49:52;3.72;;;1.80;;
51459;SDS011;37534;39.772;2.718;2023-03-19T16:52:21;9.82;;;2.58;;
51459;SDS011;37534;39.772;2.718;2023-03-19T16:54:49;10.13;;;3.15;;
51459;SDS011;37534;39.772;2.718;2023-03-19T16:57:16;5.55;;;2.05;;
51459;SDS011;37534;39.772;2.718;2023-03-19T16:59:43;11.32;;;2.53;;
51459;SDS011;37534;39.772;2.718;2023-03-19T17:02:11;8.25;;;2.60;;
51459;SDS011;37534;39.772;2.718;2023-03-19T17:04:37;8.48;;;3.08;;
51459;SDS011;37534;39.772;2.718;2023-03-19T17:07:03;8.75;;;2.08;;
51459;SDS011;37534;39.772;2.718;2023-03-19T17:09:29;6.13;;;3.03;;
51459;SDS011;37534;39.772;2.718;2023-03-19T17:11:55;9.40;;;3.20;;
51459;SDS011;37534;39.772;2.718;2023-03-19T17:14:21;4.43;;;2.17;;
51459;SDS011;37534;39.772;2.718;2023-03-19T17:16:47;3.25;;;2.30;;
51459;SDS011;37534;39.772;2.718;2023-03-19T17:19:18;6.45;;;1.52;;
51459;SDS011;37534;39.772;2.718;2023-03-19T17:21:49;7.72;;;2.40;;